This is the latest recevied weather packets stored in our database for station/object KD0SBN-3. If no packets are shown the sender has not sent any weather packets the latest 1 day(s).
| Time | Temp. | Humidity | Pressure | Rain* | Wind** | Luminosity | Snow |
|---|---|---|---|---|---|---|---|
| 1778103721 | -4.44° C | 94% | 1023 hPa | 0 mm | - | 24 W/m² | - |
| 1778102204 | -3.33° C | 94% | 1023 hPa | 0 mm | - | 34 W/m² | - |
| 1778101598 | -3.33° C | 94% | 1023.2 hPa | 0 mm | - | 42 W/m² | - |
| 1778099476 | -2.22° C | 93% | 1022.8 hPa | 0 mm | - | 102 W/m² | - |
| 1778097960 | -2.78° C | 93% | 1022.6 hPa | 0 mm | - | 174 W/m² | - |
| 1778097657 | -3.33° C | 93% | 1022.6 hPa | 0 mm | - | 121 W/m² | - |
| 1778096748 | -3.33° C | 94% | 1022.5 hPa | 0 mm | - | 122 W/m² | - |
| 1778094928 | -3.89° C | 95% | 1022.5 hPa | 0 mm | - | 25 W/m² | - |
| 1778094624 | -4.44° C | 95% | 1022.5 hPa | 0 mm | - | 30 W/m² | - |
| 1778093412 | -3.33° C | 95% | 1021.6 hPa | 0 mm | - | 66 W/m² | - |
| 1778090988 | -2.78° C | 95% | 1021.9 hPa | 0 mm | - | 45 W/m² | - |
| 1778086141 | -0.56° C | 91% | 1021.3 hPa | 0 mm | - | 144 W/m² | - |
| 1778084925 | -1.67° C | 95% | 1021.1 hPa | 0 mm | - | 98 W/m² | - |
| 1778084018 | -2.22° C | 93% | 1021.1 hPa | 0 mm | - | 127 W/m² | - |
| 1778083412 | -2.78° C | 94% | 1021.2 hPa | 0 mm | - | 174 W/m² | - |
| 1778083111 | -2.22° C | 94% | 1020.9 hPa | 0 mm | - | 134 W/m² | - |
| 1778081377 | -3.33° C | 96% | 1020.8 hPa | 0 mm | - | 49 W/m² | - |
| 1778079862 | -3.33° C | 96% | 1020.8 hPa | 0 mm | - | 66 W/m² | - |
| 1778077441 | -3.33° C | 96% | 1020.7 hPa | 0 mm | - | 33 W/m² | - |
| 1778076836 | -3.33° C | 96% | 1020.6 hPa | 0 mm | - | 34 W/m² | - |
| 1778076534 | -3.33° C | 96% | 1020.7 hPa | 0 mm | - | 33 W/m² | - |
| 1778075928 | -3.33° C | 96% | 1020.4 hPa | 0 mm | - | 33 W/m² | - |
| 1778074411 | -3.33° C | 96% | 1020 hPa | 0 mm | - | 20 W/m² | - |
| 1778074108 | -3.33° C | 96% | 1020.3 hPa | 0 mm | - | 10 W/m² | - |
| 1778073503 | -3.33° C | 96% | 1020 hPa | 0 mm | - | 7 W/m² | - |
* Rain latest hour (hover to see other rain measurements)
** Current wind speed in m/s (hover to see current wind gust speed)